Detailed Flight Report of Nuri Burak ERKAL ;
Number CXD079 
Departure Aerodrome LTBJ 
Arrival Aerodrome LMML

Map generated by the Great Circle Mapper - copyright © Karl L. Swartz.

Pilot In Command CXD079 : Nuri Burak Erkal
Aircraft B773 / TC-NZL
Date Of Flight 2020-06-12
Departure Time 04:33 UTC
Arrival Time 06:37 UTC
Block Time 02:04
Distance 666 Nm.
Used Fuel 31,865 Lbs.
   
Detailed Flight Log [2020/06/12 04:21:00]
Flight IATA:C001
Pilot Number:079
Company ICAO:CXD
Aircraft Type:B773
Aircraft Registration:TC-NZL
Departing Airport: LTBJ
Destination Airport: LMML
Alternate Airport:LICB
Online: VATSIM
Route:SITRU UR20 KEA UL617 MIL UP32 MONUV UN45 ROTAS N45 BINKO M978 GZO
Flight Level:FL360
No pause
04:21 Zero fuel Weight: 520786 Lbs, Fuel Weight: 47993 Lbs
04:21 VATSIM:LTBJ 111550Z 24011KT 210V270 9999 FEW030 26/15 Q1008 NOSIG
04:21 VATSIM:LMML 111545Z VRB02KT CAVOK 25/12 Q1013
04:25 Parking Brakes off
04:38 VR= 177 Knots
04:38 V2= 183 Knots
04:38 Take-off
04:38 Take off Weight: 567184 Lbs
04:38 Wind: 229º @ 010 Knots Heading: 168º
04:38 POS N38º 17´ 06´´ E027º 09´ 35´´
04:38 N11 92 N12 92
04:38 Flaps:5º at 185 Knots
04:38 Gear Up: 182 Knots
04:39 Flaps:1º at 189 Knots
04:39 Flaps:Up at 215 Knots
04:53 Wind:274º@062 Knots Heading: 250º Ground Speed: 4
26 Knots Altitude 34685 ft
04:53 TOC
04:53 Fuel Weight: 37074 Lb
05:08 Wind:270º@072 Knots Heading: 249º Ground Speed: 433 Knots Altitude 35859 ft
05:23 Wind:266º@077 Knots Heading: 248º Ground Speed: 427 Knots Altitude 35944 ft
05:38 Wind:268º@078 Knots Heading: 265º Ground Speed: 424 Knots Altitude 35958 ft
05:51 TOD
05:51 Fuel Weight: 21256 Lb
05:53 Wind:267º@075 Knots Heading: 268º Ground Speed: 392 Knots Altitude 34370 ft
06:08 Wind:277º@035 Knots Heading: 268º Ground Speed: 256 Knots Altitude 11200 ft
06:18 Flaps:1º at 215 Knots
06:19 Flaps:5º at 186 Knots
06:21 Flaps:15º at 178 Knots
06:21 Gear Down: 182 Knots
06:22 Flaps:30º at 164 Knots
06:22 Flaps:35º at 158 Knots
06:22 Flaps:Full at 157 Knots
06:23 Wind:008º@002 Knots Heading: 315º Ground Speed: 162 Knots Altitude 1873 ft
06:25 TouchDown:Rate -131 ft/min Speed: 139 Knots
06:25 VATSIM:LMML 111815Z
AUTO 03005KT 9999 NCD 22/13 Q1013
06:25 Land
06:25 Wind:020º@004 Knots
06:25 Heading: 313º
06:25 Flight Duration: 01:47
06:25 Landing Weight: 537154 Lbs
06:25 POS N35º 50´ 53´´ E014º 29´ 20´´
06:29 Parking brakes on
06:29 Block to Block Duration: 02:04
06:29 Final Fuel: 16128 Lbls
06:29 Spent Fuel: 31865 Lbls
06:29 Flight Length: 666 NM
06:29 TOD Land Length: 157 NM

Text Link of Flight Log http://www.candanair.net/acars/logs/CXD07920200612042100.txt
   

[ Back ]